sensor_id;sensor_type;location;lat;lon;timestamp;temperature;humidity
25923;DHT22;13725;51.170;4.442;2023-05-10T00:00:59;14.30;99.90
25923;DHT22;13725;51.170;4.442;2023-05-10T00:03:25;14.30;99.90
25923;DHT22;13725;51.170;4.442;2023-05-10T00:05:51;14.30;99.90
25923;DHT22;13725;51.170;4.442;2023-05-10T00:08:16;14.20;99.90
25923;DHT22;13725;51.170;4.442;2023-05-10T00:10:42;14.20;99.90
25923;DHT22;13725;51.170;4.442;2023-05-10T00:13:08;14.20;99.90
25923;DHT22;13725;51.170;4.442;2023-05-10T00:15:33;14.20;99.90
25923;DHT22;13725;51.170;4.442;2023-05-10T00:18:00;14.20;99.90
25923;DHT22;13725;51.170;4.442;2023-05-10T00:20:26;14.20;99.90
25923;DHT22;13725;51.170;4.442;2023-05-10T00:22:51;14.20;99.90
25923;DHT22;13725;51.170;4.442;2023-05-10T00:25:17;14.20;99.90
25923;DHT22;13725;51.170;4.442;2023-05-10T00:27:43;14.20;99.90
25923;DHT22;13725;51.170;4.442;2023-05-10T00:30:10;14.20;99.90
25923;DHT22;13725;51.170;4.442;2023-05-10T00:32:36;14.20;99.90
25923;DHT22;13725;51.170;4.442;2023-05-10T00:35:02;14.10;99.90
25923;DHT22;13725;51.170;4.442;2023-05-10T00:37:27;14.10;99.90
25923;DHT22;13725;51.170;4.442;2023-05-10T00:39:54;14.10;99.90
25923;DHT22;13725;51.170;4.442;2023-05-10T00:42:19;14.10;99.90
25923;DHT22;13725;51.170;4.442;2023-05-10T00:44:45;14.10;99.90
25923;DHT22;13725;51.170;4.442;2023-05-10T00:47:12;14.20;99.90
25923;DHT22;13725;51.170;4.442;2023-05-10T00:49:38;14.10;99.90
25923;DHT22;13725;51.170;4.442;2023-05-10T00:52:04;14.20;99.90
25923;DHT22;13725;51.170;4.442;2023-05-10T00:54:30;14.20;99.90
25923;DHT22;13725;51.170;4.442;2023-05-10T00:56:56;14.20;99.90
25923;DHT22;13725;51.170;4.442;2023-05-10T00:59:22;14.10;99.90
25923;DHT22;13725;51.170;4.442;2023-05-10T01:01:48;14.10;99.90
25923;DHT22;13725;51.170;4.442;2023-05-10T01:04:15;14.10;99.90
25923;DHT22;13725;51.170;4.442;2023-05-10T01:06:41;14.10;99.90
25923;DHT22;13725;51.170;4.442;2023-05-10T01:09:07;14.10;99.90
25923;DHT22;13725;51.170;4.442;2023-05-10T01:11:35;14.10;99.90
25923;DHT22;13725;51.170;4.442;2023-05-10T01:14:02;14.10;99.90
25923;DHT22;13725;51.170;4.442;2023-05-10T01:16:29;14.10;99.90
25923;DHT22;13725;51.170;4.442;2023-05-10T01:18:57;14.10;99.90
25923;DHT22;13725;51.170;4.442;2023-05-10T01:21:43;14.00;99.90
25923;DHT22;13725;51.170;4.442;2023-05-10T01:27:25;14.10;99.90
25923;DHT22;13725;51.170;4.442;2023-05-10T01:30:20;14.00;99.90
25923;DHT22;13725;51.170;4.442;2023-05-10T01:40:26;14.00;99.90
25923;DHT22;13725;51.170;4.442;2023-05-10T01:43:01;14.00;99.90
25923;DHT22;13725;51.170;4.442;2023-05-10T01:48:06;14.00;99.90
25923;DHT22;13725;51.170;4.442;2023-05-10T01:50:34;14.00;99.90
25923;DHT22;13725;51.170;4.442;2023-05-10T01:53:01;14.00;99.90
25923;DHT22;13725;51.170;4.442;2023-05-10T01:55:35;14.00;99.90
25923;DHT22;13725;51.170;4.442;2023-05-10T01:58:09;14.00;99.90
25923;DHT22;13725;51.170;4.442;2023-05-10T02:00:36;14.00;99.90
25923;DHT22;13725;51.170;4.442;2023-05-10T02:03:06;14.00;99.90
25923;DHT22;13725;51.170;4.442;2023-05-10T02:05:33;14.00;99.90
25923;DHT22;13725;51.170;4.442;2023-05-10T02:08:00;14.00;99.90
25923;DHT22;13725;51.170;4.442;2023-05-10T02:10:28;14.00;99.90
25923;DHT22;13725;51.170;4.442;2023-05-10T02:12:55;14.00;99.90
25923;DHT22;13725;51.170;4.442;2023-05-10T02:15:24;14.00;99.90
25923;DHT22;13725;51.170;4.442;2023-05-10T02:17:54;14.00;99.90
25923;DHT22;13725;51.170;4.442;2023-05-10T02:20:21;14.00;99.90
25923;DHT22;13725;51.170;4.442;2023-05-10T02:22:49;14.00;99.90
25923;DHT22;13725;51.170;4.442;2023-05-10T02:25:18;13.90;99.90
25923;DHT22;13725;51.170;4.442;2023-05-10T02:27:44;13.90;99.90
25923;DHT22;13725;51.170;4.442;2023-05-10T02:30:12;14.00;99.90
25923;DHT22;13725;51.170;4.442;2023-05-10T02:32:39;14.00;99.90
25923;DHT22;13725;51.170;4.442;2023-05-10T02:35:06;13.90;99.90
25923;DHT22;13725;51.170;4.442;2023-05-10T02:37:34;13.90;99.90
25923;DHT22;13725;51.170;4.442;2023-05-10T02:40:04;14.00;99.90
25923;DHT22;13725;51.170;4.442;2023-05-10T02:42:34;13.90;99.90
25923;DHT22;13725;51.170;4.442;2023-05-10T02:45:03;13.90;99.90
25923;DHT22;13725;51.170;4.442;2023-05-10T02:47:30;13.90;99.90
25923;DHT22;13725;51.170;4.442;2023-05-10T02:49:56;13.90;99.90
25923;DHT22;13725;51.170;4.442;2023-05-10T02:52:28;13.90;99.90
25923;DHT22;13725;51.170;4.442;2023-05-10T02:54:56;13.90;99.90
25923;DHT22;13725;51.170;4.442;2023-05-10T02:57:32;13.90;99.90
25923;DHT22;13725;51.170;4.442;2023-05-10T02:59:59;13.90;99.90
25923;DHT22;13725;51.170;4.442;2023-05-10T03:02:26;13.90;99.90
25923;DHT22;13725;51.170;4.442;2023-05-10T03:04:52;13.90;99.90
25923;DHT22;13725;51.170;4.442;2023-05-10T03:07:18;13.90;99.90
25923;DHT22;13725;51.170;4.442;2023-05-10T03:09:48;13.90;99.90
25923;DHT22;13725;51.170;4.442;2023-05-10T03:17:46;13.70;99.90
25923;DHT22;13725;51.170;4.442;2023-05-10T03:20:22;13.70;99.90
25923;DHT22;13725;51.170;4.442;2023-05-10T03:22:55;13.70;99.90
25923;DHT22;13725;51.170;4.442;2023-05-10T03:25:23;13.70;99.90
25923;DHT22;13725;51.170;4.442;2023-05-10T03:27:52;13.70;99.90
25923;DHT22;13725;51.170;4.442;2023-05-10T03:30:18;13.70;99.90
25923;DHT22;13725;51.170;4.442;2023-05-10T03:32:44;13.70;99.90
25923;DHT22;13725;51.170;4.442;2023-05-10T03:35:12;13.70;99.90
25923;DHT22;13725;51.170;4.442;2023-05-10T03:37:39;13.70;99.90
25923;DHT22;13725;51.170;4.442;2023-05-10T03:40:05;13.60;99.90
25923;DHT22;13725;51.170;4.442;2023-05-10T03:42:33;13.60;99.90
25923;DHT22;13725;51.170;4.442;2023-05-10T03:44:59;13.60;99.90
25923;DHT22;13725;51.170;4.442;2023-05-10T03:47:25;13.60;99.90
25923;DHT22;13725;51.170;4.442;2023-05-10T03:49:51;13.60;99.90
25923;DHT22;13725;51.170;4.442;2023-05-10T03:52:17;13.60;99.90
25923;DHT22;13725;51.170;4.442;2023-05-10T03:54:44;13.60;99.90
25923;DHT22;13725;51.170;4.442;2023-05-10T03:57:09;13.60;99.90
25923;DHT22;13725;51.170;4.442;2023-05-10T03:59:35;13.60;99.90
25923;DHT22;13725;51.170;4.442;2023-05-10T04:02:01;13.60;99.90
25923;DHT22;13725;51.170;4.442;2023-05-10T04:04:27;13.60;99.90
25923;DHT22;13725;51.170;4.442;2023-05-10T04:06:53;13.60;99.90
25923;DHT22;13725;51.170;4.442;2023-05-10T04:09:18;13.60;99.90
25923;DHT22;13725;51.170;4.442;2023-05-10T04:11:44;13.60;99.90
25923;DHT22;13725;51.170;4.442;2023-05-10T04:14:10;13.60;99.90
25923;DHT22;13725;51.170;4.442;2023-05-10T04:16:35;13.60;99.90
25923;DHT22;13725;51.170;4.442;2023-05-10T04:19:01;13.60;99.90
25923;DHT22;13725;51.170;4.442;2023-05-10T04:21:28;13.70;99.90
25923;DHT22;13725;51.170;4.442;2023-05-10T04:23:54;13.60;99.90
25923;DHT22;13725;51.170;4.442;2023-05-10T04:26:19;13.70;99.90
25923;DHT22;13725;51.170;4.442;2023-05-10T04:28:46;13.70;99.90
25923;DHT22;13725;51.170;4.442;2023-05-10T04:31:12;13.70;99.90
25923;DHT22;13725;51.170;4.442;2023-05-10T04:33:37;13.80;99.90
25923;DHT22;13725;51.170;4.442;2023-05-10T04:36:03;13.70;99.90
25923;DHT22;13725;51.170;4.442;2023-05-10T04:38:29;13.80;99.90
25923;DHT22;13725;51.170;4.442;2023-05-10T04:41:04;13.70;99.90
25923;DHT22;13725;51.170;4.442;2023-05-10T04:43:30;13.70;99.90
25923;DHT22;13725;51.170;4.442;2023-05-10T04:45:56;13.50;99.90
25923;DHT22;13725;51.170;4.442;2023-05-10T04:48:22;13.40;99.90
25923;DHT22;13725;51.170;4.442;2023-05-10T04:50:48;13.40;99.90
25923;DHT22;13725;51.170;4.442;2023-05-10T04:53:13;13.40;99.90
25923;DHT22;13725;51.170;4.442;2023-05-10T04:55:39;13.50;99.90
25923;DHT22;13725;51.170;4.442;2023-05-10T04:58:05;13.60;99.90
25923;DHT22;13725;51.170;4.442;2023-05-10T05:00:31;13.60;99.90
25923;DHT22;13725;51.170;4.442;2023-05-10T05:02:57;13.60;99.90
25923;DHT22;13725;51.170;4.442;2023-05-10T05:05:23;13.60;99.90
25923;DHT22;13725;51.170;4.442;2023-05-10T05:07:48;13.60;99.90
25923;DHT22;13725;51.170;4.442;2023-05-10T05:10:14;13.60;99.90
25923;DHT22;13725;51.170;4.442;2023-05-10T05:12:40;13.70;99.90
25923;DHT22;13725;51.170;4.442;2023-05-10T05:15:06;13.90;99.90
25923;DHT22;13725;51.170;4.442;2023-05-10T05:17:34;14.00;99.90
25923;DHT22;13725;51.170;4.442;2023-05-10T05:20:00;14.10;99.90
25923;DHT22;13725;51.170;4.442;2023-05-10T05:22:26;14.10;99.90
25923;DHT22;13725;51.170;4.442;2023-05-10T05:24:56;14.20;99.90
25923;DHT22;13725;51.170;4.442;2023-05-10T05:27:24;14.20;99.90
25923;DHT22;13725;51.170;4.442;2023-05-10T05:29:55;14.30;99.90
25923;DHT22;13725;51.170;4.442;2023-05-10T05:32:21;14.50;99.90
25923;DHT22;13725;51.170;4.442;2023-05-10T05:34:47;14.60;99.90
25923;DHT22;13725;51.170;4.442;2023-05-10T05:37:18;14.60;99.90
25923;DHT22;13725;51.170;4.442;2023-05-10T05:39:45;14.60;99.90
25923;DHT22;13725;51.170;4.442;2023-05-10T05:42:12;14.80;99.90
25923;DHT22;13725;51.170;4.442;2023-05-10T05:44:38;14.80;99.90
25923;DHT22;13725;51.170;4.442;2023-05-10T05:47:03;14.90;99.90
25923;DHT22;13725;51.170;4.442;2023-05-10T05:49:29;14.90;99.90
25923;DHT22;13725;51.170;4.442;2023-05-10T05:51:59;15.00;99.90
25923;DHT22;13725;51.170;4.442;2023-05-10T05:54:26;15.00;99.90
25923;DHT22;13725;51.170;4.442;2023-05-10T05:56:56;15.10;99.90
25923;DHT22;13725;51.170;4.442;2023-05-10T05:59:22;15.20;99.90
25923;DHT22;13725;51.170;4.442;2023-05-10T06:01:48;15.30;99.90
25923;DHT22;13725;51.170;4.442;2023-05-10T06:04:14;15.30;99.90
25923;DHT22;13725;51.170;4.442;2023-05-10T06:06:39;15.50;99.90
25923;DHT22;13725;51.170;4.442;2023-05-10T06:09:05;15.50;99.90
25923;DHT22;13725;51.170;4.442;2023-05-10T06:11:31;15.60;99.90
25923;DHT22;13725;51.170;4.442;2023-05-10T06:14:00;15.60;99.90
25923;DHT22;13725;51.170;4.442;2023-05-10T06:16:26;15.70;99.90
25923;DHT22;13725;51.170;4.442;2023-05-10T06:18:51;15.80;99.90
25923;DHT22;13725;51.170;4.442;2023-05-10T06:21:17;16.00;99.90
25923;DHT22;13725;51.170;4.442;2023-05-10T06:23:43;16.20;99.90
25923;DHT22;13725;51.170;4.442;2023-05-10T06:26:09;16.40;99.90
25923;DHT22;13725;51.170;4.442;2023-05-10T06:28:35;16.60;99.90
25923;DHT22;13725;51.170;4.442;2023-05-10T06:31:04;16.80;99.90
25923;DHT22;13725;51.170;4.442;2023-05-10T06:33:30;17.00;99.90
25923;DHT22;13725;51.170;4.442;2023-05-10T06:35:55;17.10;99.90
25923;DHT22;13725;51.170;4.442;2023-05-10T06:38:21;17.20;99.90
25923;DHT22;13725;51.170;4.442;2023-05-10T06:40:47;17.10;99.90
25923;DHT22;13725;51.170;4.442;2023-05-10T06:43:13;17.00;99.90
25923;DHT22;13725;51.170;4.442;2023-05-10T06:45:38;17.00;99.90
25923;DHT22;13725;51.170;4.442;2023-05-10T06:48:04;16.90;99.90
25923;DHT22;13725;51.170;4.442;2023-05-10T06:50:30;16.90;99.90
25923;DHT22;13725;51.170;4.442;2023-05-10T06:52:56;17.00;99.90
25923;DHT22;13725;51.170;4.442;2023-05-10T06:55:22;17.10;99.90
25923;DHT22;13725;51.170;4.442;2023-05-10T06:57:47;17.00;99.90
25923;DHT22;13725;51.170;4.442;2023-05-10T07:00:14;17.10;99.90
25923;DHT22;13725;51.170;4.442;2023-05-10T07:02:40;17.10;99.90
25923;DHT22;13725;51.170;4.442;2023-05-10T07:05:06;17.20;99.90
25923;DHT22;13725;51.170;4.442;2023-05-10T07:07:31;17.30;99.90
25923;DHT22;13725;51.170;4.442;2023-05-10T07:09:57;17.30;99.90
25923;DHT22;13725;51.170;4.442;2023-05-10T07:12:24;17.30;99.90
25923;DHT22;13725;51.170;4.442;2023-05-10T07:14:49;17.30;99.90
25923;DHT22;13725;51.170;4.442;2023-05-10T07:17:15;17.20;99.90
25923;DHT22;13725;51.170;4.442;2023-05-10T07:19:41;17.30;99.90
25923;DHT22;13725;51.170;4.442;2023-05-10T07:22:07;17.30;99.90
25923;DHT22;13725;51.170;4.442;2023-05-10T07:24:33;17.30;99.90
25923;DHT22;13725;51.170;4.442;2023-05-10T07:26:59;17.40;99.90
25923;DHT22;13725;51.170;4.442;2023-05-10T07:29:25;17.50;99.90
25923;DHT22;13725;51.170;4.442;2023-05-10T07:31:51;18.00;99.90
25923;DHT22;13725;51.170;4.442;2023-05-10T07:34:17;18.40;99.90
25923;DHT22;13725;51.170;4.442;2023-05-10T07:36:43;19.00;99.90
25923;DHT22;13725;51.170;4.442;2023-05-10T07:39:09;19.70;99.90
25923;DHT22;13725;51.170;4.442;2023-05-10T07:41:34;20.50;99.90
25923;DHT22;13725;51.170;4.442;2023-05-10T07:44:01;20.60;99.90
25923;DHT22;13725;51.170;4.442;2023-05-10T07:46:27;20.70;99.90
25923;DHT22;13725;51.170;4.442;2023-05-10T07:48:53;20.70;99.90
25923;DHT22;13725;51.170;4.442;2023-05-10T07:51:19;20.60;99.90
25923;DHT22;13725;51.170;4.442;2023-05-10T07:53:45;20.40;99.90
25923;DHT22;13725;51.170;4.442;2023-05-10T07:56:29;20.10;99.90
25923;DHT22;13725;51.170;4.442;2023-05-10T07:59:01;20.00;99.90
25923;DHT22;13725;51.170;4.442;2023-05-10T08:01:33;19.80;99.90
25923;DHT22;13725;51.170;4.442;2023-05-10T08:03:59;19.80;99.90
25923;DHT22;13725;51.170;4.442;2023-05-10T08:06:25;21.30;99.90
25923;DHT22;13725;51.170;4.442;2023-05-10T08:08:52;22.90;99.90
25923;DHT22;13725;51.170;4.442;2023-05-10T08:11:20;25.10;99.90
25923;DHT22;13725;51.170;4.442;2023-05-10T08:13:46;27.30;99.90
25923;DHT22;13725;51.170;4.442;2023-05-10T08:16:12;28.70;99.90
25923;DHT22;13725;51.170;4.442;2023-05-10T08:18:39;29.60;99.90
25923;DHT22;13725;51.170;4.442;2023-05-10T08:21:06;28.80;99.90
25923;DHT22;13725;51.170;4.442;2023-05-10T08:23:32;28.50;99.90
25923;DHT22;13725;51.170;4.442;2023-05-10T08:25:58;28.30;99.90
25923;DHT22;13725;51.170;4.442;2023-05-10T08:28:24;28.70;99.90
25923;DHT22;13725;51.170;4.442;2023-05-10T08:30:50;29.00;99.90
25923;DHT22;13725;51.170;4.442;2023-05-10T08:33:18;28.50;99.90
25923;DHT22;13725;51.170;4.442;2023-05-10T08:35:44;27.60;99.90
25923;DHT22;13725;51.170;4.442;2023-05-10T08:38:09;26.70;99.90
25923;DHT22;13725;51.170;4.442;2023-05-10T08:40:37;26.40;99.90
25923;DHT22;13725;51.170;4.442;2023-05-10T08:43:08;26.20;99.90
25923;DHT22;13725;51.170;4.442;2023-05-10T08:45:39;26.00;99.90
25923;DHT22;13725;51.170;4.442;2023-05-10T08:48:07;26.10;99.90
25923;DHT22;13725;51.170;4.442;2023-05-10T08:50:37;26.50;99.90
25923;DHT22;13725;51.170;4.442;2023-05-10T08:53:11;26.30;99.90
25923;DHT22;13725;51.170;4.442;2023-05-10T08:55:38;25.60;99.90
25923;DHT22;13725;51.170;4.442;2023-05-10T08:58:07;24.70;99.90
25923;DHT22;13725;51.170;4.442;2023-05-10T09:00:34;23.80;99.90
25923;DHT22;13725;51.170;4.442;2023-05-10T09:03:01;23.10;99.90
25923;DHT22;13725;51.170;4.442;2023-05-10T09:05:27;22.60;99.90
25923;DHT22;13725;51.170;4.442;2023-05-10T09:07:53;22.10;99.90
25923;DHT22;13725;51.170;4.442;2023-05-10T09:10:20;21.80;99.90
25923;DHT22;13725;51.170;4.442;2023-05-10T09:12:46;22.10;99.90
25923;DHT22;13725;51.170;4.442;2023-05-10T09:15:15;23.20;99.90
25923;DHT22;13725;51.170;4.442;2023-05-10T09:17:41;24.90;99.90
25923;DHT22;13725;51.170;4.442;2023-05-10T09:20:07;25.50;99.90
25923;DHT22;13725;51.170;4.442;2023-05-10T09:22:34;24.90;99.90
25923;DHT22;13725;51.170;4.442;2023-05-10T09:25:08;24.00;99.90
25923;DHT22;13725;51.170;4.442;2023-05-10T09:27:35;22.90;99.90
25923;DHT22;13725;51.170;4.442;2023-05-10T09:30:01;21.90;99.90
25923;DHT22;13725;51.170;4.442;2023-05-10T09:32:42;21.00;99.90
25923;DHT22;13725;51.170;4.442;2023-05-10T09:35:16;20.40;99.90
25923;DHT22;13725;51.170;4.442;2023-05-10T09:37:44;19.90;99.90
25923;DHT22;13725;51.170;4.442;2023-05-10T09:40:18;19.50;99.90
25923;DHT22;13725;51.170;4.442;2023-05-10T09:42:55;19.20;99.90
25923;DHT22;13725;51.170;4.442;2023-05-10T09:45:24;19.00;99.90
25923;DHT22;13725;51.170;4.442;2023-05-10T09:47:51;19.00;99.90
25923;DHT22;13725;51.170;4.442;2023-05-10T09:50:17;19.40;99.90
25923;DHT22;13725;51.170;4.442;2023-05-10T09:52:47;20.40;99.90
25923;DHT22;13725;51.170;4.442;2023-05-10T09:55:14;20.50;99.90
25923;DHT22;13725;51.170;4.442;2023-05-10T09:57:40;19.90;99.90
25923;DHT22;13725;51.170;4.442;2023-05-10T10:00:07;19.20;99.90
25923;DHT22;13725;51.170;4.442;2023-05-10T10:02:39;18.70;99.90
25923;DHT22;13725;51.170;4.442;2023-05-10T10:05:06;18.40;99.90
25923;DHT22;13725;51.170;4.442;2023-05-10T10:07:32;18.30;99.90
25923;DHT22;13725;51.170;4.442;2023-05-10T10:09:59;18.20;99.90
25923;DHT22;13725;51.170;4.442;2023-05-10T10:12:26;18.60;99.90
25923;DHT22;13725;51.170;4.442;2023-05-10T10:14:52;20.70;99.90
25923;DHT22;13725;51.170;4.442;2023-05-10T10:17:19;24.20;99.90
25923;DHT22;13725;51.170;4.442;2023-05-10T10:19:46;27.40;99.90
25923;DHT22;13725;51.170;4.442;2023-05-10T10:22:12;29.20;99.90
25923;DHT22;13725;51.170;4.442;2023-05-10T10:24:38;29.10;99.90
25923;DHT22;13725;51.170;4.442;2023-05-10T10:27:23;27.90;99.90
25923;DHT22;13725;51.170;4.442;2023-05-10T10:35:22;26.60;99.90
25923;DHT22;13725;51.170;4.442;2023-05-10T10:37:50;26.10;99.90
25923;DHT22;13725;51.170;4.442;2023-05-10T10:40:27;25.80;99.90
25923;DHT22;13725;51.170;4.442;2023-05-10T10:42:53;25.40;99.90
25923;DHT22;13725;51.170;4.442;2023-05-10T10:45:20;25.00;99.90
25923;DHT22;13725;51.170;4.442;2023-05-10T10:47:46;24.80;99.90
25923;DHT22;13725;51.170;4.442;2023-05-10T10:50:12;24.90;99.90
25923;DHT22;13725;51.170;4.442;2023-05-10T10:52:39;25.00;99.90
25923;DHT22;13725;51.170;4.442;2023-05-10T10:57:57;24.50;99.90
25923;DHT22;13725;51.170;4.442;2023-05-10T11:00:36;24.20;99.90
25923;DHT22;13725;51.170;4.442;2023-05-10T11:03:10;23.60;99.90
25923;DHT22;13725;51.170;4.442;2023-05-10T11:05:49;23.00;99.90
25923;DHT22;13725;51.170;4.442;2023-05-10T11:11:05;21.80;99.90
25923;DHT22;13725;51.170;4.442;2023-05-10T11:13:45;21.40;99.90
25923;DHT22;13725;51.170;4.442;2023-05-10T11:19:15;20.10;99.90
25923;DHT22;13725;51.170;4.442;2023-05-10T11:21:50;19.80;99.90
25923;DHT22;13725;51.170;4.442;2023-05-10T11:24:19;19.40;99.90
25923;DHT22;13725;51.170;4.442;2023-05-10T11:26:45;19.10;99.90
25923;DHT22;13725;51.170;4.442;2023-05-10T11:29:13;18.80;99.90
25923;DHT22;13725;51.170;4.442;2023-05-10T11:31:45;18.40;99.90
25923;DHT22;13725;51.170;4.442;2023-05-10T11:34:30;18.20;99.90
25923;DHT22;13725;51.170;4.442;2023-05-10T11:36:57;18.00;99.90
25923;DHT22;13725;51.170;4.442;2023-05-10T11:39:29;18.00;99.90
25923;DHT22;13725;51.170;4.442;2023-05-10T11:41:56;18.10;99.90
25923;DHT22;13725;51.170;4.442;2023-05-10T11:44:22;18.10;99.90
25923;DHT22;13725;51.170;4.442;2023-05-10T11:46:49;18.10;99.90
25923;DHT22;13725;51.170;4.442;2023-05-10T11:49:15;18.10;99.90
25923;DHT22;13725;51.170;4.442;2023-05-10T11:51:40;18.10;99.90
25923;DHT22;13725;51.170;4.442;2023-05-10T11:54:10;18.20;99.90
25923;DHT22;13725;51.170;4.442;2023-05-10T11:56:37;18.10;99.90
25923;DHT22;13725;51.170;4.442;2023-05-10T11:59:04;18.20;99.90
25923;DHT22;13725;51.170;4.442;2023-05-10T12:01:30;18.20;99.90
25923;DHT22;13725;51.170;4.442;2023-05-10T12:03:57;18.00;99.90
25923;DHT22;13725;51.170;4.442;2023-05-10T12:06:27;18.20;99.90
25923;DHT22;13725;51.170;4.442;2023-05-10T12:08:54;18.50;99.90
25923;DHT22;13725;51.170;4.442;2023-05-10T12:11:25;18.90;99.90
25923;DHT22;13725;51.170;4.442;2023-05-10T12:13:50;19.20;99.90
25923;DHT22;13725;51.170;4.442;2023-05-10T12:16:19;19.10;99.90
25923;DHT22;13725;51.170;4.442;2023-05-10T12:18:49;19.20;99.90
25923;DHT22;13725;51.170;4.442;2023-05-10T12:21:15;19.40;99.90
25923;DHT22;13725;51.170;4.442;2023-05-10T12:23:41;19.40;99.90
25923;DHT22;13725;51.170;4.442;2023-05-10T12:26:10;19.40;99.90
25923;DHT22;13725;51.170;4.442;2023-05-10T12:28:37;19.30;99.90
25923;DHT22;13725;51.170;4.442;2023-05-10T12:31:03;19.20;99.90
25923;DHT22;13725;51.170;4.442;2023-05-10T12:33:37;19.00;99.90
25923;DHT22;13725;51.170;4.442;2023-05-10T12:36:04;19.00;99.90
25923;DHT22;13725;51.170;4.442;2023-05-10T12:41:02;19.00;99.90
25923;DHT22;13725;51.170;4.442;2023-05-10T12:43:28;19.20;99.90
25923;DHT22;13725;51.170;4.442;2023-05-10T12:45:54;19.20;99.90
25923;DHT22;13725;51.170;4.442;2023-05-10T12:48:20;19.30;99.90
25923;DHT22;13725;51.170;4.442;2023-05-10T12:50:46;19.40;99.90
25923;DHT22;13725;51.170;4.442;2023-05-10T12:53:14;19.40;99.90
25923;DHT22;13725;51.170;4.442;2023-05-10T12:55:42;19.30;99.90
25923;DHT22;13725;51.170;4.442;2023-05-10T12:58:07;19.50;99.90
25923;DHT22;13725;51.170;4.442;2023-05-10T13:00:33;19.50;99.90
25923;DHT22;13725;51.170;4.442;2023-05-10T13:02:59;19.80;99.90
25923;DHT22;13725;51.170;4.442;2023-05-10T13:05:25;19.80;99.90
25923;DHT22;13725;51.170;4.442;2023-05-10T13:07:51;20.00;99.90
25923;DHT22;13725;51.170;4.442;2023-05-10T13:10:16;20.10;99.90
25923;DHT22;13725;51.170;4.442;2023-05-10T13:12:42;20.10;99.90
25923;DHT22;13725;51.170;4.442;2023-05-10T13:15:08;20.10;99.90
25923;DHT22;13725;51.170;4.442;2023-05-10T13:17:34;20.20;99.90
25923;DHT22;13725;51.170;4.442;2023-05-10T13:20:00;20.30;99.90
25923;DHT22;13725;51.170;4.442;2023-05-10T13:22:26;20.30;99.90
25923;DHT22;13725;51.170;4.442;2023-05-10T13:24:51;20.40;99.90
25923;DHT22;13725;51.170;4.442;2023-05-10T13:27:17;20.40;99.90
25923;DHT22;13725;51.170;4.442;2023-05-10T13:29:43;20.20;99.90
25923;DHT22;13725;51.170;4.442;2023-05-10T13:32:08;20.20;99.90
25923;DHT22;13725;51.170;4.442;2023-05-10T13:34:34;20.20;99.90
25923;DHT22;13725;51.170;4.442;2023-05-10T13:37:01;20.20;99.90
25923;DHT22;13725;51.170;4.442;2023-05-10T13:39:27;20.10;99.90
25923;DHT22;13725;51.170;4.442;2023-05-10T13:41:53;20.00;99.90
25923;DHT22;13725;51.170;4.442;2023-05-10T13:44:20;19.90;99.90
25923;DHT22;13725;51.170;4.442;2023-05-10T13:46:46;19.80;99.90
25923;DHT22;13725;51.170;4.442;2023-05-10T13:49:11;19.70;99.90
25923;DHT22;13725;51.170;4.442;2023-05-10T13:51:37;19.60;99.90
25923;DHT22;13725;51.170;4.442;2023-05-10T13:54:03;19.50;99.90
25923;DHT22;13725;51.170;4.442;2023-05-10T13:56:29;19.40;99.90
25923;DHT22;13725;51.170;4.442;2023-05-10T13:58:56;19.30;99.90
25923;DHT22;13725;51.170;4.442;2023-05-10T14:01:22;19.20;99.90
25923;DHT22;13725;51.170;4.442;2023-05-10T14:03:48;19.10;99.90
25923;DHT22;13725;51.170;4.442;2023-05-10T14:06:14;18.80;99.90
25923;DHT22;13725;51.170;4.442;2023-05-10T14:08:40;18.70;99.90
25923;DHT22;13725;51.170;4.442;2023-05-10T14:11:05;18.70;99.90
25923;DHT22;13725;51.170;4.442;2023-05-10T14:13:31;18.70;99.90
25923;DHT22;13725;51.170;4.442;2023-05-10T14:15:57;18.50;99.90
25923;DHT22;13725;51.170;4.442;2023-05-10T14:18:24;18.50;99.90
25923;DHT22;13725;51.170;4.442;2023-05-10T14:20:49;18.50;99.90
25923;DHT22;13725;51.170;4.442;2023-05-10T14:23:15;18.60;99.90
25923;DHT22;13725;51.170;4.442;2023-05-10T14:25:41;18.50;99.90
25923;DHT22;13725;51.170;4.442;2023-05-10T14:28:07;18.60;99.90
25923;DHT22;13725;51.170;4.442;2023-05-10T14:30:33;18.60;99.90
25923;DHT22;13725;51.170;4.442;2023-05-10T14:33:01;18.70;99.90
25923;DHT22;13725;51.170;4.442;2023-05-10T14:35:27;18.80;99.90
25923;DHT22;13725;51.170;4.442;2023-05-10T14:37:53;19.00;99.90
25923;DHT22;13725;51.170;4.442;2023-05-10T14:40:19;19.20;99.90
25923;DHT22;13725;51.170;4.442;2023-05-10T14:42:45;19.40;99.90
25923;DHT22;13725;51.170;4.442;2023-05-10T14:45:11;19.60;99.90
25923;DHT22;13725;51.170;4.442;2023-05-10T14:47:37;19.80;99.90
25923;DHT22;13725;51.170;4.442;2023-05-10T14:50:03;20.00;99.90
25923;DHT22;13725;51.170;4.442;2023-05-10T14:52:29;20.20;99.90
25923;DHT22;13725;51.170;4.442;2023-05-10T14:54:55;20.30;99.90
25923;DHT22;13725;51.170;4.442;2023-05-10T14:57:20;20.40;99.90
25923;DHT22;13725;51.170;4.442;2023-05-10T14:59:46;20.20;99.90
25923;DHT22;13725;51.170;4.442;2023-05-10T15:02:12;20.20;99.90
25923;DHT22;13725;51.170;4.442;2023-05-10T15:04:38;19.60;99.90
25923;DHT22;13725;51.170;4.442;2023-05-10T15:07:04;18.90;99.90
25923;DHT22;13725;51.170;4.442;2023-05-10T15:09:31;18.50;99.90
25923;DHT22;13725;51.170;4.442;2023-05-10T15:11:56;18.10;99.90
25923;DHT22;13725;51.170;4.442;2023-05-10T15:14:22;17.90;99.90
25923;DHT22;13725;51.170;4.442;2023-05-10T15:16:48;17.70;99.90
25923;DHT22;13725;51.170;4.442;2023-05-10T15:19:14;17.60;99.90
25923;DHT22;13725;51.170;4.442;2023-05-10T15:21:40;17.50;99.90
25923;DHT22;13725;51.170;4.442;2023-05-10T15:24:08;17.50;99.90
25923;DHT22;13725;51.170;4.442;2023-05-10T15:26:35;17.50;99.90
25923;DHT22;13725;51.170;4.442;2023-05-10T15:29:00;17.50;99.90
25923;DHT22;13725;51.170;4.442;2023-05-10T15:31:26;17.60;99.90
25923;DHT22;13725;51.170;4.442;2023-05-10T15:33:57;17.70;99.90
25923;DHT22;13725;51.170;4.442;2023-05-10T15:36:22;17.80;99.90
25923;DHT22;13725;51.170;4.442;2023-05-10T15:38:48;17.90;99.90
25923;DHT22;13725;51.170;4.442;2023-05-10T15:41:14;18.10;99.90
25923;DHT22;13725;51.170;4.442;2023-05-10T15:43:40;18.30;99.90
25923;DHT22;13725;51.170;4.442;2023-05-10T15:46:06;18.40;99.90
25923;DHT22;13725;51.170;4.442;2023-05-10T15:48:31;18.40;99.90
25923;DHT22;13725;51.170;4.442;2023-05-10T15:50:57;18.50;99.90
25923;DHT22;13725;51.170;4.442;2023-05-10T15:53:23;18.60;99.90
25923;DHT22;13725;51.170;4.442;2023-05-10T15:55:49;18.70;99.90
25923;DHT22;13725;51.170;4.442;2023-05-10T15:58:15;18.80;99.90
25923;DHT22;13725;51.170;4.442;2023-05-10T16:00:41;18.80;99.90
25923;DHT22;13725;51.170;4.442;2023-05-10T16:03:07;18.70;99.90
25923;DHT22;13725;51.170;4.442;2023-05-10T16:05:33;18.70;99.90